sensor_id;sensor_type;location;lat;lon;timestamp;temperature;humidity
25092;DHT22;13082;52.374;4.946;2023-02-28T00:01:13;5.90;99.90
25092;DHT22;13082;52.374;4.946;2023-02-28T00:03:39;5.80;99.90
25092;DHT22;13082;52.374;4.946;2023-02-28T00:06:08;5.80;99.90
25092;DHT22;13082;52.374;4.946;2023-02-28T00:08:37;5.80;99.90
25092;DHT22;13082;52.374;4.946;2023-02-28T00:11:11;5.80;99.90
25092;DHT22;13082;52.374;4.946;2023-02-28T00:13:40;5.80;99.90
25092;DHT22;13082;52.374;4.946;2023-02-28T00:16:08;5.80;99.90
25092;DHT22;13082;52.374;4.946;2023-02-28T00:18:34;5.80;99.90
25092;DHT22;13082;52.374;4.946;2023-02-28T00:21:00;5.80;99.90
25092;DHT22;13082;52.374;4.946;2023-02-28T00:23:26;5.80;99.90
25092;DHT22;13082;52.374;4.946;2023-02-28T00:25:52;5.70;99.90
25092;DHT22;13082;52.374;4.946;2023-02-28T00:28:18;5.80;99.90
25092;DHT22;13082;52.374;4.946;2023-02-28T00:30:44;5.80;99.90
25092;DHT22;13082;52.374;4.946;2023-02-28T00:33:10;5.80;99.90
25092;DHT22;13082;52.374;4.946;2023-02-28T00:35:36;5.80;99.90
25092;DHT22;13082;52.374;4.946;2023-02-28T00:38:02;5.80;99.90
25092;DHT22;13082;52.374;4.946;2023-02-28T00:40:28;5.70;99.90
25092;DHT22;13082;52.374;4.946;2023-02-28T00:42:54;5.70;99.90
25092;DHT22;13082;52.374;4.946;2023-02-28T00:45:19;5.70;99.90
25092;DHT22;13082;52.374;4.946;2023-02-28T00:47:45;5.70;99.90
25092;DHT22;13082;52.374;4.946;2023-02-28T00:50:12;5.80;99.90
25092;DHT22;13082;52.374;4.946;2023-02-28T00:52:37;5.80;99.90
25092;DHT22;13082;52.374;4.946;2023-02-28T00:55:04;5.80;99.90
25092;DHT22;13082;52.374;4.946;2023-02-28T00:57:29;5.90;99.90
25092;DHT22;13082;52.374;4.946;2023-02-28T00:59:55;5.90;99.90
25092;DHT22;13082;52.374;4.946;2023-02-28T01:02:22;5.90;99.90
25092;DHT22;13082;52.374;4.946;2023-02-28T01:04:48;5.80;99.90
25092;DHT22;13082;52.374;4.946;2023-02-28T01:07:13;5.80;99.90
25092;DHT22;13082;52.374;4.946;2023-02-28T01:09:40;5.80;99.90
25092;DHT22;13082;52.374;4.946;2023-02-28T01:12:07;5.80;99.90
25092;DHT22;13082;52.374;4.946;2023-02-28T01:14:33;5.90;99.90
25092;DHT22;13082;52.374;4.946;2023-02-28T01:17:00;5.90;99.90
25092;DHT22;13082;52.374;4.946;2023-02-28T01:19:25;5.90;99.90
25092;DHT22;13082;52.374;4.946;2023-02-28T01:21:51;5.90;99.90
25092;DHT22;13082;52.374;4.946;2023-02-28T01:24:17;5.90;99.90
25092;DHT22;13082;52.374;4.946;2023-02-28T01:26:42;5.90;99.90
25092;DHT22;13082;52.374;4.946;2023-02-28T01:29:08;5.90;99.90
25092;DHT22;13082;52.374;4.946;2023-02-28T01:31:33;5.90;99.90
25092;DHT22;13082;52.374;4.946;2023-02-28T01:33:59;5.90;99.90
25092;DHT22;13082;52.374;4.946;2023-02-28T01:36:25;5.90;99.90
25092;DHT22;13082;52.374;4.946;2023-02-28T01:38:51;5.90;99.90
25092;DHT22;13082;52.374;4.946;2023-02-28T01:41:21;5.90;99.90
25092;DHT22;13082;52.374;4.946;2023-02-28T01:46:13;5.90;99.90
25092;DHT22;13082;52.374;4.946;2023-02-28T01:48:52;5.90;99.90
25092;DHT22;13082;52.374;4.946;2023-02-28T01:51:47;5.90;99.90
25092;DHT22;13082;52.374;4.946;2023-02-28T01:54:28;5.90;99.90
25092;DHT22;13082;52.374;4.946;2023-02-28T01:57:05;5.90;99.90
25092;DHT22;13082;52.374;4.946;2023-02-28T01:59:39;5.90;99.90
25092;DHT22;13082;52.374;4.946;2023-02-28T02:02:15;5.90;99.90
25092;DHT22;13082;52.374;4.946;2023-02-28T02:07:16;5.90;99.90
25092;DHT22;13082;52.374;4.946;2023-02-28T02:09:42;5.90;99.90
25092;DHT22;13082;52.374;4.946;2023-02-28T02:12:25;6.00;99.90
25092;DHT22;13082;52.374;4.946;2023-02-28T02:15:28;5.90;99.90
25092;DHT22;13082;52.374;4.946;2023-02-28T02:17:55;6.00;99.90
25092;DHT22;13082;52.374;4.946;2023-02-28T02:20:38;6.00;99.90
25092;DHT22;13082;52.374;4.946;2023-02-28T02:31:56;6.00;99.90
25092;DHT22;13082;52.374;4.946;2023-02-28T02:39:36;6.00;99.90
25092;DHT22;13082;52.374;4.946;2023-02-28T02:42:12;6.00;99.90
25092;DHT22;13082;52.374;4.946;2023-02-28T02:44:58;6.00;99.90
25092;DHT22;13082;52.374;4.946;2023-02-28T02:47:29;6.00;99.90
25092;DHT22;13082;52.374;4.946;2023-02-28T02:49:59;6.00;99.90
25092;DHT22;13082;52.374;4.946;2023-02-28T02:52:36;6.00;99.90
25092;DHT22;13082;52.374;4.946;2023-02-28T02:55:03;6.00;99.90
25092;DHT22;13082;52.374;4.946;2023-02-28T02:57:38;6.00;99.90
25092;DHT22;13082;52.374;4.946;2023-02-28T03:00:06;6.00;99.90
25092;DHT22;13082;52.374;4.946;2023-02-28T03:02:36;5.90;99.90
25092;DHT22;13082;52.374;4.946;2023-02-28T03:05:08;6.00;99.90
25092;DHT22;13082;52.374;4.946;2023-02-28T03:07:37;6.00;99.90
25092;DHT22;13082;52.374;4.946;2023-02-28T03:10:25;5.90;99.90
25092;DHT22;13082;52.374;4.946;2023-02-28T03:13:00;5.90;99.90
25092;DHT22;13082;52.374;4.946;2023-02-28T03:15:40;5.90;99.90
25092;DHT22;13082;52.374;4.946;2023-02-28T03:18:21;5.90;99.90
25092;DHT22;13082;52.374;4.946;2023-02-28T03:23:56;5.90;99.90
25092;DHT22;13082;52.374;4.946;2023-02-28T03:26:26;5.90;99.90
25092;DHT22;13082;52.374;4.946;2023-02-28T03:31:37;5.90;99.90
25092;DHT22;13082;52.374;4.946;2023-02-28T03:36:45;5.80;99.90
25092;DHT22;13082;52.374;4.946;2023-02-28T03:39:22;5.80;99.90
25092;DHT22;13082;52.374;4.946;2023-02-28T03:41:56;5.60;99.90
25092;DHT22;13082;52.374;4.946;2023-02-28T03:44:28;5.60;99.90
25092;DHT22;13082;52.374;4.946;2023-02-28T03:47:02;5.60;99.90
25092;DHT22;13082;52.374;4.946;2023-02-28T03:49:36;5.60;99.90
25092;DHT22;13082;52.374;4.946;2023-02-28T03:52:08;5.60;99.90
25092;DHT22;13082;52.374;4.946;2023-02-28T03:54:48;5.60;99.90
25092;DHT22;13082;52.374;4.946;2023-02-28T04:00:10;5.60;99.90
25092;DHT22;13082;52.374;4.946;2023-02-28T04:02:37;5.60;99.90
25092;DHT22;13082;52.374;4.946;2023-02-28T04:05:03;5.60;99.90
25092;DHT22;13082;52.374;4.946;2023-02-28T04:07:29;5.60;99.90
25092;DHT22;13082;52.374;4.946;2023-02-28T04:09:56;5.60;99.90
25092;DHT22;13082;52.374;4.946;2023-02-28T04:12:21;5.60;99.90
25092;DHT22;13082;52.374;4.946;2023-02-28T04:14:49;5.60;99.90
25092;DHT22;13082;52.374;4.946;2023-02-28T04:17:15;5.60;99.90
25092;DHT22;13082;52.374;4.946;2023-02-28T04:19:40;5.60;99.90
25092;DHT22;13082;52.374;4.946;2023-02-28T04:22:08;5.50;99.90
25092;DHT22;13082;52.374;4.946;2023-02-28T04:24:34;5.40;99.90
25092;DHT22;13082;52.374;4.946;2023-02-28T04:27:00;5.30;99.90
25092;DHT22;13082;52.374;4.946;2023-02-28T04:29:31;5.20;99.90
25092;DHT22;13082;52.374;4.946;2023-02-28T04:32:00;5.20;99.90
25092;DHT22;13082;52.374;4.946;2023-02-28T04:34:28;5.10;99.90
25092;DHT22;13082;52.374;4.946;2023-02-28T04:36:56;5.10;99.90
25092;DHT22;13082;52.374;4.946;2023-02-28T04:39:23;5.10;99.90
25092;DHT22;13082;52.374;4.946;2023-02-28T04:41:49;5.00;99.90
25092;DHT22;13082;52.374;4.946;2023-02-28T04:44:16;5.00;99.90
25092;DHT22;13082;52.374;4.946;2023-02-28T04:46:43;5.00;99.90
25092;DHT22;13082;52.374;4.946;2023-02-28T04:49:11;5.00;99.90
25092;DHT22;13082;52.374;4.946;2023-02-28T04:51:37;5.00;99.90
25092;DHT22;13082;52.374;4.946;2023-02-28T04:54:03;4.90;99.90
25092;DHT22;13082;52.374;4.946;2023-02-28T04:56:28;4.90;99.90
25092;DHT22;13082;52.374;4.946;2023-02-28T04:58:54;4.90;99.90
25092;DHT22;13082;52.374;4.946;2023-02-28T05:01:31;4.90;99.90
25092;DHT22;13082;52.374;4.946;2023-02-28T05:03:59;4.90;99.90
25092;DHT22;13082;52.374;4.946;2023-02-28T05:06:27;4.90;99.90
25092;DHT22;13082;52.374;4.946;2023-02-28T05:08:53;4.90;99.90
25092;DHT22;13082;52.374;4.946;2023-02-28T05:11:21;4.90;99.90
25092;DHT22;13082;52.374;4.946;2023-02-28T05:13:48;5.00;99.90
25092;DHT22;13082;52.374;4.946;2023-02-28T05:16:14;5.00;99.90
25092;DHT22;13082;52.374;4.946;2023-02-28T05:18:40;5.00;99.90
25092;DHT22;13082;52.374;4.946;2023-02-28T05:21:06;5.00;99.90
25092;DHT22;13082;52.374;4.946;2023-02-28T05:23:42;5.00;99.90
25092;DHT22;13082;52.374;4.946;2023-02-28T05:26:08;5.00;99.90
25092;DHT22;13082;52.374;4.946;2023-02-28T05:28:33;5.10;99.90
25092;DHT22;13082;52.374;4.946;2023-02-28T05:30:59;5.10;99.90
25092;DHT22;13082;52.374;4.946;2023-02-28T05:33:24;5.00;99.90
25092;DHT22;13082;52.374;4.946;2023-02-28T05:35:50;5.00;99.90
25092;DHT22;13082;52.374;4.946;2023-02-28T05:38:15;5.00;99.90
25092;DHT22;13082;52.374;4.946;2023-02-28T05:40:42;4.90;99.90
25092;DHT22;13082;52.374;4.946;2023-02-28T05:43:10;4.80;99.90
25092;DHT22;13082;52.374;4.946;2023-02-28T05:45:37;4.70;99.90
25092;DHT22;13082;52.374;4.946;2023-02-28T05:48:02;4.60;99.90
25092;DHT22;13082;52.374;4.946;2023-02-28T05:50:28;4.50;99.90
25092;DHT22;13082;52.374;4.946;2023-02-28T05:52:54;4.40;99.90
25092;DHT22;13082;52.374;4.946;2023-02-28T05:55:19;4.30;99.90
25092;DHT22;13082;52.374;4.946;2023-02-28T05:57:45;4.20;99.90
25092;DHT22;13082;52.374;4.946;2023-02-28T06:00:11;4.10;99.90
25092;DHT22;13082;52.374;4.946;2023-02-28T06:02:39;4.00;99.90
25092;DHT22;13082;52.374;4.946;2023-02-28T06:05:09;3.90;99.90
25092;DHT22;13082;52.374;4.946;2023-02-28T06:07:38;3.90;99.90
25092;DHT22;13082;52.374;4.946;2023-02-28T06:10:03;3.90;99.90
25092;DHT22;13082;52.374;4.946;2023-02-28T06:12:29;3.90;99.90
25092;DHT22;13082;52.374;4.946;2023-02-28T06:14:54;3.80;99.90
25092;DHT22;13082;52.374;4.946;2023-02-28T06:17:20;3.80;99.90
25092;DHT22;13082;52.374;4.946;2023-02-28T06:19:46;3.70;99.90
25092;DHT22;13082;52.374;4.946;2023-02-28T06:22:13;3.70;99.90
25092;DHT22;13082;52.374;4.946;2023-02-28T06:24:38;3.60;99.90
25092;DHT22;13082;52.374;4.946;2023-02-28T06:27:04;3.60;99.90
25092;DHT22;13082;52.374;4.946;2023-02-28T06:29:32;3.50;99.90
25092;DHT22;13082;52.374;4.946;2023-02-28T06:31:58;3.50;99.90
25092;DHT22;13082;52.374;4.946;2023-02-28T06:34:24;3.40;99.90
25092;DHT22;13082;52.374;4.946;2023-02-28T06:36:51;3.40;99.90
25092;DHT22;13082;52.374;4.946;2023-02-28T06:39:17;3.40;99.90
25092;DHT22;13082;52.374;4.946;2023-02-28T06:41:43;3.40;99.90
25092;DHT22;13082;52.374;4.946;2023-02-28T06:44:15;3.40;99.90
25092;DHT22;13082;52.374;4.946;2023-02-28T06:46:42;3.40;99.90
25092;DHT22;13082;52.374;4.946;2023-02-28T06:49:09;3.40;99.90
25092;DHT22;13082;52.374;4.946;2023-02-28T06:51:37;3.40;99.90
25092;DHT22;13082;52.374;4.946;2023-02-28T06:54:05;3.30;99.90
25092;DHT22;13082;52.374;4.946;2023-02-28T06:56:30;3.10;99.90
25092;DHT22;13082;52.374;4.946;2023-02-28T06:58:56;2.90;99.90
25092;DHT22;13082;52.374;4.946;2023-02-28T07:01:22;2.90;99.90
25092;DHT22;13082;52.374;4.946;2023-02-28T07:03:49;2.90;99.90
25092;DHT22;13082;52.374;4.946;2023-02-28T07:06:18;2.80;99.90
25092;DHT22;13082;52.374;4.946;2023-02-28T07:08:44;2.70;99.90
25092;DHT22;13082;52.374;4.946;2023-02-28T07:11:10;2.70;99.90
25092;DHT22;13082;52.374;4.946;2023-02-28T07:13:35;2.60;99.90
25092;DHT22;13082;52.374;4.946;2023-02-28T07:16:04;2.60;99.90
25092;DHT22;13082;52.374;4.946;2023-02-28T07:18:31;2.60;99.90
25092;DHT22;13082;52.374;4.946;2023-02-28T07:20:56;2.40;99.90
25092;DHT22;13082;52.374;4.946;2023-02-28T07:23:22;2.30;99.90
25092;DHT22;13082;52.374;4.946;2023-02-28T07:25:49;2.30;99.90
25092;DHT22;13082;52.374;4.946;2023-02-28T07:28:15;2.30;99.90
25092;DHT22;13082;52.374;4.946;2023-02-28T07:30:41;2.20;99.90
25092;DHT22;13082;52.374;4.946;2023-02-28T07:33:07;2.20;99.90
25092;DHT22;13082;52.374;4.946;2023-02-28T07:35:33;2.20;99.90
25092;DHT22;13082;52.374;4.946;2023-02-28T07:37:59;2.10;99.90
25092;DHT22;13082;52.374;4.946;2023-02-28T07:40:25;2.20;99.90
25092;DHT22;13082;52.374;4.946;2023-02-28T07:42:51;2.30;99.90
25092;DHT22;13082;52.374;4.946;2023-02-28T07:45:17;2.20;99.90
25092;DHT22;13082;52.374;4.946;2023-02-28T07:47:43;2.30;99.90
25092;DHT22;13082;52.374;4.946;2023-02-28T07:50:11;2.20;99.90
25092;DHT22;13082;52.374;4.946;2023-02-28T07:52:37;2.20;99.90
25092;DHT22;13082;52.374;4.946;2023-02-28T07:55:04;2.20;99.90
25092;DHT22;13082;52.374;4.946;2023-02-28T07:57:30;2.20;99.90
25092;DHT22;13082;52.374;4.946;2023-02-28T07:59:56;2.20;99.90
25092;DHT22;13082;52.374;4.946;2023-02-28T08:02:22;2.20;99.90
25092;DHT22;13082;52.374;4.946;2023-02-28T08:04:47;2.20;99.90
25092;DHT22;13082;52.374;4.946;2023-02-28T08:07:14;2.30;99.90
25092;DHT22;13082;52.374;4.946;2023-02-28T08:09:40;2.40;99.90
25092;DHT22;13082;52.374;4.946;2023-02-28T08:12:06;2.40;99.90
25092;DHT22;13082;52.374;4.946;2023-02-28T08:14:33;2.40;99.90
25092;DHT22;13082;52.374;4.946;2023-02-28T08:16:58;2.40;99.90
25092;DHT22;13082;52.374;4.946;2023-02-28T08:19:24;2.40;99.90
25092;DHT22;13082;52.374;4.946;2023-02-28T08:21:50;2.40;99.90
25092;DHT22;13082;52.374;4.946;2023-02-28T08:24:16;2.50;99.90
25092;DHT22;13082;52.374;4.946;2023-02-28T08:26:41;2.40;99.90
25092;DHT22;13082;52.374;4.946;2023-02-28T08:29:07;2.40;99.90
25092;DHT22;13082;52.374;4.946;2023-02-28T08:31:33;2.50;99.90
25092;DHT22;13082;52.374;4.946;2023-02-28T08:34:10;2.50;99.90
25092;DHT22;13082;52.374;4.946;2023-02-28T08:36:36;2.50;99.90
25092;DHT22;13082;52.374;4.946;2023-02-28T08:39:02;2.50;99.90
25092;DHT22;13082;52.374;4.946;2023-02-28T08:41:28;2.60;99.90
25092;DHT22;13082;52.374;4.946;2023-02-28T08:43:54;2.70;99.90
25092;DHT22;13082;52.374;4.946;2023-02-28T08:46:19;2.80;99.90
25092;DHT22;13082;52.374;4.946;2023-02-28T08:48:45;2.90;99.90
25092;DHT22;13082;52.374;4.946;2023-02-28T08:51:14;3.00;99.90
25092;DHT22;13082;52.374;4.946;2023-02-28T08:53:41;3.10;99.90
25092;DHT22;13082;52.374;4.946;2023-02-28T08:56:10;3.20;99.90
25092;DHT22;13082;52.374;4.946;2023-02-28T08:58:36;3.20;99.90
25092;DHT22;13082;52.374;4.946;2023-02-28T09:01:16;3.30;99.90
25092;DHT22;13082;52.374;4.946;2023-02-28T09:03:43;3.30;99.90
25092;DHT22;13082;52.374;4.946;2023-02-28T09:06:09;3.40;99.90
25092;DHT22;13082;52.374;4.946;2023-02-28T09:08:36;3.40;99.90
25092;DHT22;13082;52.374;4.946;2023-02-28T09:11:02;3.40;99.90
25092;DHT22;13082;52.374;4.946;2023-02-28T09:13:29;3.50;99.90
25092;DHT22;13082;52.374;4.946;2023-02-28T09:15:57;3.50;99.90
25092;DHT22;13082;52.374;4.946;2023-02-28T09:18:23;3.50;99.90
25092;DHT22;13082;52.374;4.946;2023-02-28T09:20:49;3.60;99.90
25092;DHT22;13082;52.374;4.946;2023-02-28T09:23:16;3.60;99.90
25092;DHT22;13082;52.374;4.946;2023-02-28T09:25:52;3.60;99.90
25092;DHT22;13082;52.374;4.946;2023-02-28T09:28:19;3.70;99.90
25092;DHT22;13082;52.374;4.946;2023-02-28T09:30:50;3.70;99.90
25092;DHT22;13082;52.374;4.946;2023-02-28T09:33:17;3.70;99.90
25092;DHT22;13082;52.374;4.946;2023-02-28T09:35:44;3.70;99.90
25092;DHT22;13082;52.374;4.946;2023-02-28T09:38:10;3.70;99.90
25092;DHT22;13082;52.374;4.946;2023-02-28T09:40:53;3.70;99.90
25092;DHT22;13082;52.374;4.946;2023-02-28T09:43:23;3.70;99.90
25092;DHT22;13082;52.374;4.946;2023-02-28T09:46:25;3.70;99.90
25092;DHT22;13082;52.374;4.946;2023-02-28T09:48:53;3.70;99.90
25092;DHT22;13082;52.374;4.946;2023-02-28T09:53:56;3.80;99.90
25092;DHT22;13082;52.374;4.946;2023-02-28T09:56:26;3.70;99.90
25092;DHT22;13082;52.374;4.946;2023-02-28T10:02:04;3.70;99.90
25092;DHT22;13082;52.374;4.946;2023-02-28T10:04:47;3.70;99.90
25092;DHT22;13082;52.374;4.946;2023-02-28T10:13:52;3.70;99.90
25092;DHT22;13082;52.374;4.946;2023-02-28T10:15:56;3.70;99.90
25092;DHT22;13082;52.374;4.946;2023-02-28T10:18:48;3.70;99.90
25092;DHT22;13082;52.374;4.946;2023-02-28T10:21:30;3.70;99.90
25092;DHT22;13082;52.374;4.946;2023-02-28T10:24:03;3.70;99.90
25092;DHT22;13082;52.374;4.946;2023-02-28T10:26:31;3.70;99.90
25092;DHT22;13082;52.374;4.946;2023-02-28T10:28:58;3.70;99.90
25092;DHT22;13082;52.374;4.946;2023-02-28T10:31:24;3.70;99.90
25092;DHT22;13082;52.374;4.946;2023-02-28T10:33:50;3.70;99.90
25092;DHT22;13082;52.374;4.946;2023-02-28T10:36:18;3.80;99.90
25092;DHT22;13082;52.374;4.946;2023-02-28T10:38:45;3.80;99.90
25092;DHT22;13082;52.374;4.946;2023-02-28T10:41:16;3.80;99.90
25092;DHT22;13082;52.374;4.946;2023-02-28T10:43:52;3.80;99.90
25092;DHT22;13082;52.374;4.946;2023-02-28T10:46:19;3.80;99.90
25092;DHT22;13082;52.374;4.946;2023-02-28T10:49:13;3.80;99.90
25092;DHT22;13082;52.374;4.946;2023-02-28T10:51:41;3.90;99.90
25092;DHT22;13082;52.374;4.946;2023-02-28T10:54:19;4.10;99.90
25092;DHT22;13082;52.374;4.946;2023-02-28T10:56:46;4.20;99.90
25092;DHT22;13082;52.374;4.946;2023-02-28T10:59:31;4.20;99.90
25092;DHT22;13082;52.374;4.946;2023-02-28T11:01:57;4.20;99.90
25092;DHT22;13082;52.374;4.946;2023-02-28T11:07:22;4.30;99.90
25092;DHT22;13082;52.374;4.946;2023-02-28T11:09:50;4.40;99.90
25092;DHT22;13082;52.374;4.946;2023-02-28T11:14:58;4.50;99.90
25092;DHT22;13082;52.374;4.946;2023-02-28T11:17:28;4.70;99.90
25092;DHT22;13082;52.374;4.946;2023-02-28T11:20:05;4.70;99.90
25092;DHT22;13082;52.374;4.946;2023-02-28T11:22:37;4.70;99.90
25092;DHT22;13082;52.374;4.946;2023-02-28T11:25:32;4.60;99.90
25092;DHT22;13082;52.374;4.946;2023-02-28T11:28:04;4.60;99.90
25092;DHT22;13082;52.374;4.946;2023-02-28T11:30:36;4.70;99.90
25092;DHT22;13082;52.374;4.946;2023-02-28T11:33:22;4.70;99.90
25092;DHT22;13082;52.374;4.946;2023-02-28T11:35:49;4.80;99.90
25092;DHT22;13082;52.374;4.946;2023-02-28T11:38:16;4.80;99.90
25092;DHT22;13082;52.374;4.946;2023-02-28T11:41:09;4.90;99.90
25092;DHT22;13082;52.374;4.946;2023-02-28T11:46:44;5.30;99.90
25092;DHT22;13082;52.374;4.946;2023-02-28T11:57:19;6.20;99.90
25092;DHT22;13082;52.374;4.946;2023-02-28T12:00:06;6.30;99.90
25092;DHT22;13082;52.374;4.946;2023-02-28T12:05:42;6.50;99.90
25092;DHT22;13082;52.374;4.946;2023-02-28T12:16:20;7.30;99.90
25092;DHT22;13082;52.374;4.946;2023-02-28T12:19:22;7.50;99.90
25092;DHT22;13082;52.374;4.946;2023-02-28T12:27:25;7.90;99.90
25092;DHT22;13082;52.374;4.946;2023-02-28T12:30:03;8.10;99.90
25092;DHT22;13082;52.374;4.946;2023-02-28T12:32:35;8.10;99.90
25092;DHT22;13082;52.374;4.946;2023-02-28T12:35:26;8.00;99.90
25092;DHT22;13082;52.374;4.946;2023-02-28T12:38:08;7.90;99.90
25092;DHT22;13082;52.374;4.946;2023-02-28T12:43:16;7.70;99.90
25092;DHT22;13082;52.374;4.946;2023-02-28T12:45:48;7.70;99.90
25092;DHT22;13082;52.374;4.946;2023-02-28T12:48:20;7.80;99.90
25092;DHT22;13082;52.374;4.946;2023-02-28T12:50:48;7.80;99.90
25092;DHT22;13082;52.374;4.946;2023-02-28T12:53:24;7.90;99.90
25092;DHT22;13082;52.374;4.946;2023-02-28T12:56:04;8.10;99.90
25092;DHT22;13082;52.374;4.946;2023-02-28T13:09:58;8.40;99.90
25092;DHT22;13082;52.374;4.946;2023-02-28T13:12:25;8.50;99.90
25092;DHT22;13082;52.374;4.946;2023-02-28T13:15:13;8.50;99.90
25092;DHT22;13082;52.374;4.946;2023-02-28T13:17:41;8.60;99.90
25092;DHT22;13082;52.374;4.946;2023-02-28T13:20:25;8.70;99.90
25092;DHT22;13082;52.374;4.946;2023-02-28T13:22:53;8.80;99.90
25092;DHT22;13082;52.374;4.946;2023-02-28T13:27:52;8.90;99.90
25092;DHT22;13082;52.374;4.946;2023-02-28T13:38:43;8.80;99.90
25092;DHT22;13082;52.374;4.946;2023-02-28T13:46:24;8.90;99.90
25092;DHT22;13082;52.374;4.946;2023-02-28T13:48:50;8.80;99.90
25092;DHT22;13082;52.374;4.946;2023-02-28T13:51:47;8.90;99.90
25092;DHT22;13082;52.374;4.946;2023-02-28T14:05:13;8.80;99.90
25092;DHT22;13082;52.374;4.946;2023-02-28T14:07:46;8.70;99.90
25092;DHT22;13082;52.374;4.946;2023-02-28T14:15:41;8.60;99.90
25092;DHT22;13082;52.374;4.946;2023-02-28T14:18:26;8.70;99.90
25092;DHT22;13082;52.374;4.946;2023-02-28T14:20:57;8.70;99.90
25092;DHT22;13082;52.374;4.946;2023-02-28T14:31:10;8.50;99.90
25092;DHT22;13082;52.374;4.946;2023-02-28T14:36:26;8.50;99.90
25092;DHT22;13082;52.374;4.946;2023-02-28T14:38:56;8.60;99.90
25092;DHT22;13082;52.374;4.946;2023-02-28T14:41:31;8.60;99.90
25092;DHT22;13082;52.374;4.946;2023-02-28T14:44:01;8.50;99.90
25092;DHT22;13082;52.374;4.946;2023-02-28T14:46:38;8.50;99.90
25092;DHT22;13082;52.374;4.946;2023-02-28T14:49:24;8.50;99.90
25092;DHT22;13082;52.374;4.946;2023-02-28T14:52:02;8.50;99.90
25092;DHT22;13082;52.374;4.946;2023-02-28T14:54:28;8.60;99.90
25092;DHT22;13082;52.374;4.946;2023-02-28T14:56:54;8.50;99.90
25092;DHT22;13082;52.374;4.946;2023-02-28T14:59:26;8.50;99.90
25092;DHT22;13082;52.374;4.946;2023-02-28T15:02:12;8.60;99.90
25092;DHT22;13082;52.374;4.946;2023-02-28T15:04:38;8.50;99.90
25092;DHT22;13082;52.374;4.946;2023-02-28T15:07:12;8.50;99.90
25092;DHT22;13082;52.374;4.946;2023-02-28T15:09:38;8.50;99.90
25092;DHT22;13082;52.374;4.946;2023-02-28T15:12:04;8.40;99.90
25092;DHT22;13082;52.374;4.946;2023-02-28T15:14:30;8.40;99.90
25092;DHT22;13082;52.374;4.946;2023-02-28T15:17:00;8.40;99.90
25092;DHT22;13082;52.374;4.946;2023-02-28T15:19:32;8.30;99.90
25092;DHT22;13082;52.374;4.946;2023-02-28T15:22:11;8.30;99.90
25092;DHT22;13082;52.374;4.946;2023-02-28T15:24:46;8.30;99.90
25092;DHT22;13082;52.374;4.946;2023-02-28T15:27:21;8.20;99.90
25092;DHT22;13082;52.374;4.946;2023-02-28T15:29:51;8.10;99.90
25092;DHT22;13082;52.374;4.946;2023-02-28T15:32:28;8.10;99.90
25092;DHT22;13082;52.374;4.946;2023-02-28T15:34:55;8.00;99.90
25092;DHT22;13082;52.374;4.946;2023-02-28T15:37:44;8.10;99.90
25092;DHT22;13082;52.374;4.946;2023-02-28T15:40:22;8.00;99.90
25092;DHT22;13082;52.374;4.946;2023-02-28T15:43:19;8.00;99.90
25092;DHT22;13082;52.374;4.946;2023-02-28T15:45:50;7.90;99.90
25092;DHT22;13082;52.374;4.946;2023-02-28T15:48:31;7.90;99.90
25092;DHT22;13082;52.374;4.946;2023-02-28T15:53:51;7.90;99.90
25092;DHT22;13082;52.374;4.946;2023-02-28T15:56:26;7.80;99.90
25092;DHT22;13082;52.374;4.946;2023-02-28T15:58:56;7.80;99.90
25092;DHT22;13082;52.374;4.946;2023-02-28T16:01:31;7.70;99.90
25092;DHT22;13082;52.374;4.946;2023-02-28T16:04:03;7.70;99.90
25092;DHT22;13082;52.374;4.946;2023-02-28T16:09:00;7.60;99.90
25092;DHT22;13082;52.374;4.946;2023-02-28T16:11:26;7.60;99.90
25092;DHT22;13082;52.374;4.946;2023-02-28T16:13:52;7.60;99.90
25092;DHT22;13082;52.374;4.946;2023-02-28T16:16:22;7.60;99.90
25092;DHT22;13082;52.374;4.946;2023-02-28T16:18:48;7.50;99.90
25092;DHT22;13082;52.374;4.946;2023-02-28T16:21:14;7.50;99.90
25092;DHT22;13082;52.374;4.946;2023-02-28T16:23:39;7.40;99.90
25092;DHT22;13082;52.374;4.946;2023-02-28T16:26:05;7.40;99.90
25092;DHT22;13082;52.374;4.946;2023-02-28T16:28:34;7.30;99.90
25092;DHT22;13082;52.374;4.946;2023-02-28T16:31:01;7.30;99.90
25092;DHT22;13082;52.374;4.946;2023-02-28T16:33:28;7.20;99.90
25092;DHT22;13082;52.374;4.946;2023-02-28T16:35:54;7.20;99.90
25092;DHT22;13082;52.374;4.946;2023-02-28T16:38:19;7.20;99.90
25092;DHT22;13082;52.374;4.946;2023-02-28T16:40:46;7.10;99.90
25092;DHT22;13082;52.374;4.946;2023-02-28T16:43:22;7.10;99.90
25092;DHT22;13082;52.374;4.946;2023-02-28T16:45:48;7.00;99.90
25092;DHT22;13082;52.374;4.946;2023-02-28T16:48:15;6.90;99.90
25092;DHT22;13082;52.374;4.946;2023-02-28T16:50:42;6.90;99.90
25092;DHT22;13082;52.374;4.946;2023-02-28T16:53:09;6.90;99.90
25092;DHT22;13082;52.374;4.946;2023-02-28T16:55:35;6.90;99.90
25092;DHT22;13082;52.374;4.946;2023-02-28T16:58:02;6.80;99.90
25092;DHT22;13082;52.374;4.946;2023-02-28T17:00:29;6.80;99.90
25092;DHT22;13082;52.374;4.946;2023-02-28T17:02:56;6.80;99.90
25092;DHT22;13082;52.374;4.946;2023-02-28T17:05:23;6.70;99.90
25092;DHT22;13082;52.374;4.946;2023-02-28T17:07:49;6.80;99.90
25092;DHT22;13082;52.374;4.946;2023-02-28T17:10:20;6.70;99.90
25092;DHT22;13082;52.374;4.946;2023-02-28T17:12:47;6.60;99.90
25092;DHT22;13082;52.374;4.946;2023-02-28T17:15:14;6.60;99.90
25092;DHT22;13082;52.374;4.946;2023-02-28T17:17:41;6.60;99.90
25092;DHT22;13082;52.374;4.946;2023-02-28T17:20:16;6.50;99.90
25092;DHT22;13082;52.374;4.946;2023-02-28T17:22:41;6.50;99.90
25092;DHT22;13082;52.374;4.946;2023-02-28T17:25:08;6.40;99.90
25092;DHT22;13082;52.374;4.946;2023-02-28T17:27:34;6.40;99.90
25092;DHT22;13082;52.374;4.946;2023-02-28T17:30:00;6.40;99.90
25092;DHT22;13082;52.374;4.946;2023-02-28T17:32:26;6.30;99.90
25092;DHT22;13082;52.374;4.946;2023-02-28T17:34:53;6.30;99.90
25092;DHT22;13082;52.374;4.946;2023-02-28T17:37:18;6.30;99.90
25092;DHT22;13082;52.374;4.946;2023-02-28T17:39:44;6.20;99.90
25092;DHT22;13082;52.374;4.946;2023-02-28T17:42:10;6.30;99.90
25092;DHT22;13082;52.374;4.946;2023-02-28T17:44:36;6.20;99.90
25092;DHT22;13082;52.374;4.946;2023-02-28T17:47:03;6.20;99.90
25092;DHT22;13082;52.374;4.946;2023-02-28T17:49:29;6.20;99.90
25092;DHT22;13082;52.374;4.946;2023-02-28T17:51:55;6.30;99.90
25092;DHT22;13082;52.374;4.946;2023-02-28T17:54:20;6.30;99.90
25092;DHT22;13082;52.374;4.946;2023-02-28T17:56:46;6.20;99.90
25092;DHT22;13082;52.374;4.946;2023-02-28T17:59:12;6.20;99.90
25092;DHT22;13082;52.374;4.946;2023-02-28T18:01:38;6.20;99.90
25092;DHT22;13082;52.374;4.946;2023-02-28T18:04:04;6.20;99.90
25092;DHT22;13082;52.374;4.946;2023-02-28T18:06:42;6.10;99.90
25092;DHT22;13082;52.374;4.946;2023-02-28T18:09:20;6.10;99.90
25092;DHT22;13082;52.374;4.946;2023-02-28T18:11:53;6.10;99.90
25092;DHT22;13082;52.374;4.946;2023-02-28T18:14:21;6.00;99.90
25092;DHT22;13082;52.374;4.946;2023-02-28T18:16:48;6.00;99.90
25092;DHT22;13082;52.374;4.946;2023-02-28T18:19:14;6.00;99.90